createdAt,value
2019-03-21T00:00:36.441Z,985.50
2019-03-21T00:01:36.428Z,985.46
2019-03-21T00:02:36.416Z,985.49
2019-03-21T00:03:36.411Z,985.46
2019-03-21T00:04:36.393Z,985.51
2019-03-21T00:05:36.459Z,985.46
2019-03-21T00:06:36.383Z,985.45
2019-03-21T00:07:36.399Z,985.46
2019-03-21T00:08:36.355Z,985.42
2019-03-21T00:09:36.361Z,985.46
2019-03-21T00:10:36.353Z,985.42
2019-03-21T00:11:36.312Z,985.39
2019-03-21T00:12:36.330Z,985.41
2019-03-21T00:13:36.336Z,985.38
2019-03-21T00:14:36.291Z,985.38
2019-03-21T00:15:36.271Z,985.39
2019-03-21T00:16:36.265Z,985.37
2019-03-21T00:17:36.254Z,985.38
2019-03-21T00:18:36.260Z,985.40
2019-03-21T00:19:36.272Z,985.32
2019-03-21T00:20:36.291Z,985.38
2019-03-21T00:21:36.218Z,985.34
2019-03-21T00:22:36.257Z,985.32
2019-03-21T00:23:36.206Z,985.33
2019-03-21T00:24:36.194Z,985.38
2019-03-21T00:25:36.187Z,985.35
2019-03-21T00:26:36.210Z,985.32
2019-03-21T00:27:36.145Z,985.27
2019-03-21T00:28:36.151Z,985.30
2019-03-21T00:29:36.143Z,985.34
2019-03-21T00:30:36.126Z,985.31
2019-03-21T00:31:36.118Z,985.30
2019-03-21T00:32:36.146Z,985.33
2019-03-21T00:33:36.103Z,985.27
2019-03-21T00:34:36.086Z,985.31
2019-03-21T00:35:38.504Z,985.26
2019-03-21T00:36:36.038Z,985.28
2019-03-21T00:37:36.036Z,985.31
2019-03-21T00:38:36.056Z,985.31
2019-03-21T00:39:36.022Z,985.29
2019-03-21T00:40:36.012Z,985.28
2019-03-21T00:41:35.979Z,985.26
2019-03-21T00:42:35.979Z,985.30
2019-03-21T00:43:35.969Z,985.27
2019-03-21T00:44:36.053Z,985.26
2019-03-21T00:45:35.961Z,985.25
2019-03-21T00:46:35.948Z,985.24
2019-03-21T00:47:35.933Z,985.28
2019-03-21T00:48:35.923Z,985.23
2019-03-21T00:49:35.890Z,985.21
2019-03-21T00:50:35.928Z,985.21
2019-03-21T00:51:35.877Z,985.20
2019-03-21T00:52:35.862Z,985.20
2019-03-21T00:53:35.853Z,985.17
2019-03-21T00:54:35.842Z,985.21
2019-03-21T00:55:35.842Z,985.15
2019-03-21T00:56:35.868Z,985.15
2019-03-21T00:57:35.853Z,985.15
2019-03-21T00:58:35.795Z,985.12
2019-03-21T00:59:35.783Z,985.17
2019-03-21T01:00:35.793Z,985.13
2019-03-21T01:01:35.769Z,985.14
2019-03-21T01:02:35.766Z,985.14
2019-03-21T01:03:35.811Z,985.10
2019-03-21T01:04:35.757Z,985.11
2019-03-21T01:05:35.741Z,985.11
2019-03-21T01:06:35.738Z,985.14
2019-03-21T01:07:35.725Z,985.11
2019-03-21T01:08:35.709Z,985.18
2019-03-21T01:09:35.723Z,985.16
2019-03-21T01:10:35.735Z,985.14
2019-03-21T01:11:35.674Z,985.08
2019-03-21T01:12:35.663Z,985.10
2019-03-21T01:13:35.637Z,985.13
2019-03-21T01:14:35.639Z,985.15
2019-03-21T01:15:35.621Z,985.16
2019-03-21T01:16:35.648Z,985.14
2019-03-21T01:17:35.644Z,985.13
2019-03-21T01:18:35.594Z,985.14
2019-03-21T01:19:35.585Z,985.16
2019-03-21T01:20:35.573Z,985.15
2019-03-21T01:21:35.558Z,985.14
2019-03-21T01:22:35.533Z,985.12
2019-03-21T01:23:35.583Z,985.12
2019-03-21T01:24:35.517Z,985.15
2019-03-21T01:25:35.490Z,985.17
2019-03-21T01:26:35.491Z,985.15
2019-03-21T01:27:35.492Z,985.12
2019-03-21T01:28:35.459Z,985.09
2019-03-21T01:29:35.488Z,985.09
2019-03-21T01:30:35.440Z,985.14
2019-03-21T01:31:35.445Z,985.13
2019-03-21T01:32:35.438Z,985.12
2019-03-21T01:33:35.429Z,985.11
2019-03-21T01:34:35.420Z,985.08
2019-03-21T01:35:35.434Z,985.09
2019-03-21T01:36:35.372Z,985.00
2019-03-21T01:37:35.364Z,985.03
2019-03-21T01:38:35.349Z,985.07
2019-03-21T01:39:35.342Z,985.04
2019-03-21T01:40:35.340Z,984.97
2019-03-21T01:41:35.363Z,985.00
2019-03-21T01:42:35.321Z,985.01
2019-03-21T01:43:35.306Z,984.98
2019-03-21T01:44:40.961Z,985.01
2019-03-21T01:45:36.274Z,984.95
2019-03-21T01:46:35.254Z,984.94
2019-03-21T01:47:35.299Z,984.92
2019-03-21T01:48:35.249Z,984.91
2019-03-21T01:49:35.227Z,984.88
2019-03-21T01:50:35.220Z,984.91
2019-03-21T01:51:35.215Z,984.89
2019-03-21T01:52:35.200Z,984.91
2019-03-21T01:53:35.245Z,984.89
2019-03-21T01:54:35.174Z,984.95
2019-03-21T01:55:35.209Z,984.98
2019-03-21T01:56:35.154Z,985.00
2019-03-21T01:57:35.186Z,984.97
2019-03-21T01:58:35.163Z,984.97
2019-03-21T01:59:35.137Z,984.90
2019-03-21T02:00:35.125Z,984.87
2019-03-21T02:01:35.132Z,984.84
2019-03-21T02:02:35.091Z,984.86
2019-03-21T02:03:35.086Z,984.87
2019-03-21T02:04:35.066Z,984.86
2019-03-21T02:05:35.060Z,984.84
2019-03-21T02:06:35.036Z,984.85
2019-03-21T02:07:35.068Z,984.88
2019-03-21T02:08:35.034Z,984.88
2019-03-21T02:09:35.017Z,984.91
2019-03-21T02:10:35.008Z,984.87
2019-03-21T02:11:35.003Z,984.91
2019-03-21T02:12:34.980Z,984.88
2019-03-21T02:13:35.015Z,984.86
2019-03-21T02:14:34.958Z,984.90
2019-03-21T02:15:34.953Z,984.92
2019-03-21T02:16:34.935Z,984.89
2019-03-21T02:17:34.922Z,984.91
2019-03-21T02:18:34.927Z,984.85
2019-03-21T02:19:34.954Z,984.91
2019-03-21T02:20:34.899Z,984.89
2019-03-21T02:21:34.882Z,984.93
2019-03-21T02:22:34.875Z,984.96
2019-03-21T02:23:34.855Z,984.95
2019-03-21T02:24:34.855Z,984.92
2019-03-21T02:25:34.937Z,984.91
2019-03-21T02:26:34.826Z,984.96
2019-03-21T02:27:34.808Z,984.94
2019-03-21T02:28:34.810Z,984.89
2019-03-21T02:29:34.780Z,984.99
2019-03-21T02:30:34.784Z,984.91
2019-03-21T02:31:34.809Z,984.93
2019-03-21T02:32:34.849Z,984.93
2019-03-21T02:33:34.753Z,984.85
2019-03-21T02:34:34.751Z,984.86
2019-03-21T02:35:34.651Z,984.93
2019-03-21T02:36:34.630Z,984.98
2019-03-21T02:37:34.673Z,984.94
2019-03-21T02:38:34.702Z,984.95
2019-03-21T02:39:34.689Z,985.04
2019-03-21T02:40:34.676Z,984.97
2019-03-21T02:41:34.672Z,984.97
2019-03-21T02:42:34.656Z,985.00
2019-03-21T02:43:34.700Z,985.01
2019-03-21T02:44:34.715Z,984.95
2019-03-21T02:45:34.660Z,984.96
2019-03-21T02:46:34.618Z,984.98
2019-03-21T02:47:34.606Z,984.98
2019-03-21T02:48:34.588Z,984.97
2019-03-21T02:49:34.614Z,984.94
2019-03-21T02:50:34.551Z,984.92
2019-03-21T02:51:34.541Z,984.93
2019-03-21T02:52:34.530Z,985.02
2019-03-21T02:53:34.531Z,984.98
2019-03-21T02:54:34.513Z,984.92
2019-03-21T02:55:34.541Z,984.95
2019-03-21T02:56:34.537Z,984.92
2019-03-21T02:57:34.482Z,984.93
2019-03-21T02:58:34.474Z,984.88
2019-03-21T02:59:34.531Z,984.86
2019-03-21T03:00:34.451Z,984.86
2019-03-21T03:01:34.493Z,984.85
2019-03-21T03:02:37.219Z,984.79
2019-03-21T03:03:34.425Z,984.87
2019-03-21T03:04:34.405Z,984.84
2019-03-21T03:05:34.399Z,984.84
2019-03-21T03:06:34.385Z,984.86
2019-03-21T03:07:34.411Z,984.77
2019-03-21T03:08:34.351Z,984.80
2019-03-21T03:09:34.338Z,984.77
2019-03-21T03:10:34.338Z,984.78
2019-03-21T03:11:34.320Z,984.74
2019-03-21T03:12:34.310Z,984.79
2019-03-21T03:13:34.349Z,984.72
2019-03-21T03:14:34.296Z,984.73
2019-03-21T03:15:34.286Z,984.77
2019-03-21T03:16:34.273Z,984.80
2019-03-21T03:17:34.258Z,984.79
2019-03-21T03:18:34.248Z,984.81
2019-03-21T03:19:34.291Z,984.81
2019-03-21T03:20:34.225Z,984.82
2019-03-21T03:21:34.201Z,984.81
2019-03-21T03:22:34.212Z,984.85
2019-03-21T03:23:34.195Z,984.82
2019-03-21T03:24:34.181Z,984.83
2019-03-21T03:25:35.060Z,984.80
2019-03-21T03:26:34.165Z,984.81
2019-03-21T03:27:34.147Z,984.86
2019-03-21T03:28:34.137Z,984.79
2019-03-21T03:29:34.119Z,984.75
2019-03-21T03:30:34.167Z,984.82
2019-03-21T03:31:34.237Z,984.77
2019-03-21T03:32:34.161Z,984.79
2019-03-21T03:33:34.088Z,984.77
2019-03-21T03:34:34.098Z,984.71
2019-03-21T03:35:34.048Z,984.72
2019-03-21T03:36:34.098Z,984.71
2019-03-21T03:37:34.031Z,984.73
2019-03-21T03:38:34.029Z,984.75
2019-03-21T03:39:36.854Z,984.70
2019-03-21T03:40:34.019Z,984.68
2019-03-21T03:41:33.995Z,984.73
2019-03-21T03:42:34.022Z,984.73
2019-03-21T03:43:33.975Z,984.64
2019-03-21T03:44:33.967Z,984.65
2019-03-21T03:45:38.066Z,984.64
2019-03-21T03:46:33.965Z,984.61
2019-03-21T03:47:33.956Z,984.61
2019-03-21T03:48:33.942Z,984.68
2019-03-21T03:49:33.901Z,984.66
2019-03-21T03:50:33.940Z,984.65
2019-03-21T03:51:33.882Z,984.69
2019-03-21T03:52:33.899Z,984.63
2019-03-21T03:53:33.854Z,984.66
2019-03-21T03:54:33.849Z,984.64
2019-03-21T03:55:33.822Z,984.61
2019-03-21T03:56:33.864Z,984.57
2019-03-21T03:57:33.884Z,984.56
2019-03-21T03:58:33.831Z,984.57
2019-03-21T03:59:33.811Z,984.54
2019-03-21T04:00:33.805Z,984.58
2019-03-21T04:01:33.791Z,984.53
2019-03-21T04:02:33.815Z,984.52
2019-03-21T04:03:33.775Z,984.56
2019-03-21T04:04:33.750Z,984.57
2019-03-21T04:05:33.736Z,984.50
2019-03-21T04:06:33.731Z,984.52
2019-03-21T04:07:33.738Z,984.53
2019-03-21T04:08:33.704Z,984.47
2019-03-21T04:09:33.685Z,984.51
2019-03-21T04:10:33.662Z,984.43
2019-03-21T04:11:33.658Z,984.48
2019-03-21T04:12:33.659Z,984.44
2019-03-21T04:13:33.681Z,984.48
2019-03-21T04:14:33.642Z,984.46
2019-03-21T04:15:33.638Z,984.48
2019-03-21T04:16:33.609Z,984.45
2019-03-21T04:17:33.616Z,984.40
2019-03-21T04:18:33.590Z,984.42
2019-03-21T04:19:33.601Z,984.49
2019-03-21T04:20:33.599Z,984.40
2019-03-21T04:21:33.544Z,984.40
2019-03-21T04:22:33.636Z,984.48
2019-03-21T04:23:33.552Z,984.40
2019-03-21T04:24:33.516Z,984.47
2019-03-21T04:25:33.507Z,984.41
2019-03-21T04:26:33.539Z,984.41
2019-03-21T04:27:33.484Z,984.37
2019-03-21T04:28:33.557Z,984.39
2019-03-21T04:29:33.467Z,984.35
2019-03-21T04:30:33.452Z,984.40
2019-03-21T04:31:33.433Z,984.36
2019-03-21T04:32:33.454Z,984.29
2019-03-21T04:33:33.425Z,984.35
2019-03-21T04:34:33.410Z,984.28
2019-03-21T04:35:33.392Z,984.31
2019-03-21T04:36:33.383Z,984.27
2019-03-21T04:37:33.433Z,984.25
2019-03-21T04:38:33.371Z,984.24
2019-03-21T04:39:33.365Z,984.29
2019-03-21T04:40:33.338Z,984.29
2019-03-21T04:41:33.324Z,984.28
2019-03-21T04:42:33.313Z,984.38
2019-03-21T04:43:33.329Z,984.28
2019-03-21T04:44:33.291Z,984.38
2019-03-21T04:45:33.324Z,984.26
2019-03-21T04:46:33.279Z,984.25
2019-03-21T04:47:33.260Z,984.28
2019-03-21T04:48:33.241Z,984.30
2019-03-21T04:49:33.235Z,984.33
2019-03-21T04:50:33.226Z,984.34
2019-03-21T04:51:34.078Z,984.27
2019-03-21T04:52:33.286Z,984.26
2019-03-21T04:53:33.196Z,984.34
2019-03-21T04:54:33.202Z,984.35
2019-03-21T04:55:33.185Z,984.27
2019-03-21T04:56:33.164Z,984.26
2019-03-21T04:57:33.170Z,984.30
2019-03-21T04:58:33.193Z,984.21
2019-03-21T04:59:33.142Z,984.24
2019-03-21T05:00:33.181Z,984.30
2019-03-21T05:01:33.121Z,984.29
2019-03-21T05:02:33.128Z,984.28
2019-03-21T05:03:33.096Z,984.30
2019-03-21T05:04:33.102Z,984.30
2019-03-21T05:05:33.083Z,984.31
2019-03-21T05:06:33.102Z,984.22
2019-03-21T05:07:33.098Z,984.26
2019-03-21T05:08:33.038Z,984.24
2019-03-21T05:09:33.031Z,984.23
2019-03-21T05:10:33.033Z,984.17
2019-03-21T05:11:33.006Z,984.18
2019-03-21T05:12:32.997Z,984.20
2019-03-21T05:13:33.062Z,984.19
2019-03-21T05:14:32.982Z,984.20
2019-03-21T05:15:32.967Z,984.23
2019-03-21T05:16:32.976Z,984.17
2019-03-21T05:17:32.944Z,984.18
2019-03-21T05:18:32.936Z,984.22
2019-03-21T05:19:32.979Z,984.23
2019-03-21T05:20:32.897Z,984.22
2019-03-21T05:21:32.880Z,984.25
2019-03-21T05:22:32.871Z,984.28
2019-03-21T05:23:32.866Z,984.22
2019-03-21T05:24:32.872Z,984.22
2019-03-21T05:25:32.911Z,984.25
2019-03-21T05:26:32.845Z,984.23
2019-03-21T05:27:32.848Z,984.23
2019-03-21T05:28:32.830Z,984.21
2019-03-21T05:29:32.812Z,984.22
2019-03-21T05:30:32.824Z,984.25
2019-03-21T05:31:32.841Z,984.23
2019-03-21T05:32:32.846Z,984.21
2019-03-21T05:33:32.767Z,984.17
2019-03-21T05:34:32.755Z,984.19
2019-03-21T05:35:32.746Z,984.19
2019-03-21T05:36:32.741Z,984.20
2019-03-21T05:37:32.740Z,984.15
2019-03-21T05:38:32.743Z,984.17
2019-03-21T05:39:32.694Z,984.15
2019-03-21T05:40:32.736Z,984.24
2019-03-21T05:41:32.676Z,984.20
2019-03-21T05:42:32.679Z,984.23
2019-03-21T05:43:32.718Z,984.21
2019-03-21T05:44:32.630Z,984.23
2019-03-21T05:45:32.654Z,984.25
2019-03-21T05:46:32.676Z,984.25
2019-03-21T05:47:32.612Z,984.25
2019-03-21T05:48:32.677Z,984.16
2019-03-21T05:49:32.574Z,984.24
2019-03-21T05:50:32.575Z,984.25
2019-03-21T05:51:32.578Z,984.23
2019-03-21T05:52:32.606Z,984.31
2019-03-21T05:53:32.546Z,984.28
2019-03-21T05:54:32.529Z,984.28
2019-03-21T05:55:32.529Z,984.30
2019-03-21T05:56:32.517Z,984.30
2019-03-21T05:57:32.495Z,984.34
2019-03-21T05:58:32.512Z,984.33
2019-03-21T05:59:32.463Z,984.36
2019-03-21T06:00:32.463Z,984.40
2019-03-21T06:01:32.430Z,984.41
2019-03-21T06:02:32.442Z,984.40
2019-03-21T06:03:32.480Z,984.39
2019-03-21T06:04:32.477Z,984.40
2019-03-21T06:05:32.452Z,984.43
2019-03-21T06:06:32.404Z,984.44
2019-03-21T06:07:32.390Z,984.45
2019-03-21T06:08:32.396Z,984.40
2019-03-21T06:09:32.370Z,984.41
2019-03-21T06:10:32.379Z,984.46
2019-03-21T06:11:32.407Z,984.49
2019-03-21T06:12:32.326Z,984.47
2019-03-21T06:13:32.325Z,984.45
2019-03-21T06:14:32.313Z,984.43
2019-03-21T06:15:32.299Z,984.46
2019-03-21T06:16:37.606Z,984.45
2019-03-21T06:17:33.309Z,984.50
2019-03-21T06:18:32.250Z,984.49
2019-03-21T06:19:32.262Z,984.47
2019-03-21T06:20:32.247Z,984.52
2019-03-21T06:21:32.259Z,984.56
2019-03-21T06:22:32.220Z,984.50
2019-03-21T06:23:32.238Z,984.44
2019-03-21T06:24:32.192Z,984.44
2019-03-21T06:25:32.189Z,984.51
2019-03-21T06:26:32.182Z,984.50
2019-03-21T06:27:32.170Z,984.52
2019-03-21T06:28:32.174Z,984.53
2019-03-21T06:29:32.150Z,984.57
2019-03-21T06:30:32.143Z,984.56
2019-03-21T06:31:32.106Z,984.59
2019-03-21T06:32:32.122Z,984.58
2019-03-21T06:33:32.150Z,984.57
2019-03-21T06:34:32.112Z,984.62
2019-03-21T06:35:32.089Z,984.64
2019-03-21T06:36:32.079Z,984.64
2019-03-21T06:37:32.058Z,984.64
2019-03-21T06:38:32.053Z,984.63
2019-03-21T06:39:32.050Z,984.62
2019-03-21T06:40:31.996Z,984.61
2019-03-21T06:41:32.052Z,984.61
2019-03-21T06:42:31.995Z,984.63
2019-03-21T06:43:31.985Z,984.65
2019-03-21T06:44:31.979Z,984.69
2019-03-21T06:45:31.966Z,984.70
2019-03-21T06:46:31.998Z,984.70
2019-03-21T06:47:31.983Z,984.67
2019-03-21T06:48:31.945Z,984.71
2019-03-21T06:49:31.935Z,984.74
2019-03-21T06:50:31.911Z,984.72
2019-03-21T06:51:31.918Z,984.66
2019-03-21T06:52:31.898Z,984.74
2019-03-21T06:53:31.916Z,984.70
2019-03-21T06:54:31.881Z,984.70
2019-03-21T06:55:31.833Z,984.67
2019-03-21T06:56:31.853Z,984.70
2019-03-21T06:57:31.846Z,984.69
2019-03-21T06:58:31.889Z,984.67
2019-03-21T06:59:31.804Z,984.68
2019-03-21T07:00:31.797Z,984.65
2019-03-21T07:01:31.793Z,984.70
2019-03-21T07:02:31.776Z,984.64
2019-03-21T07:03:31.767Z,984.73
2019-03-21T07:04:31.768Z,984.72
2019-03-21T07:05:31.725Z,984.69
2019-03-21T07:06:31.711Z,984.73
2019-03-21T07:07:31.718Z,984.73
2019-03-21T07:08:31.709Z,984.73
2019-03-21T07:09:31.709Z,984.73
2019-03-21T07:10:31.717Z,984.81
2019-03-21T07:11:31.699Z,984.80
2019-03-21T07:12:31.669Z,984.76
2019-03-21T07:13:31.663Z,984.87
2019-03-21T07:14:31.637Z,984.80
2019-03-21T07:15:31.615Z,984.82
2019-03-21T07:16:31.685Z,984.82
2019-03-21T07:17:31.613Z,984.76
2019-03-21T07:18:31.597Z,984.77
2019-03-21T07:19:31.576Z,984.80
2019-03-21T07:20:31.575Z,984.80
2019-03-21T07:21:31.572Z,984.75
2019-03-21T07:22:31.592Z,984.84
2019-03-21T07:23:31.538Z,984.80
2019-03-21T07:24:31.512Z,984.78
2019-03-21T07:25:31.523Z,984.81
2019-03-21T07:26:31.512Z,984.78
2019-03-21T07:27:31.497Z,984.81
2019-03-21T07:28:31.522Z,984.81
2019-03-21T07:29:31.515Z,984.82
2019-03-21T07:30:31.476Z,984.80
2019-03-21T07:31:31.451Z,984.85
2019-03-21T07:32:33.574Z,984.85
2019-03-21T07:33:31.432Z,984.86
2019-03-21T07:34:31.456Z,984.87
2019-03-21T07:35:31.426Z,984.84
2019-03-21T07:36:31.437Z,984.84
2019-03-21T07:37:31.386Z,984.83
2019-03-21T07:38:31.385Z,984.81
2019-03-21T07:39:31.372Z,984.78
2019-03-21T07:40:31.372Z,984.86
2019-03-21T07:41:31.347Z,984.81
2019-03-21T07:42:31.377Z,984.75
2019-03-21T07:43:31.313Z,984.79
2019-03-21T07:44:31.309Z,984.76
2019-03-21T07:45:31.297Z,984.78
2019-03-21T07:46:32.149Z,984.79
2019-03-21T07:47:31.268Z,984.71
2019-03-21T07:48:31.332Z,984.73
2019-03-21T07:49:32.720Z,984.75
2019-03-21T07:50:31.243Z,984.73
2019-03-21T07:51:31.233Z,984.74
2019-03-21T07:52:31.220Z,984.72
2019-03-21T07:53:31.220Z,984.74
2019-03-21T07:54:31.230Z,984.73
2019-03-21T07:55:31.184Z,984.68
2019-03-21T07:56:31.179Z,984.70
2019-03-21T07:57:31.173Z,984.72
2019-03-21T07:58:31.161Z,984.65
2019-03-21T07:59:31.134Z,984.66
2019-03-21T08:00:31.164Z,984.62
2019-03-21T08:01:31.122Z,984.63
2019-03-21T08:02:31.108Z,984.63
2019-03-21T08:03:31.097Z,984.60
2019-03-21T08:04:31.084Z,984.66
2019-03-21T08:05:39.842Z,984.58
2019-03-21T08:06:32.081Z,984.62
2019-03-21T08:07:31.059Z,984.61
2019-03-21T08:08:31.045Z,984.65
2019-03-21T08:09:31.147Z,984.62
2019-03-21T08:10:31.044Z,984.64
2019-03-21T08:11:31.007Z,984.62
2019-03-21T08:12:31.065Z,984.57
2019-03-21T08:13:30.986Z,984.59
2019-03-21T08:14:31.013Z,984.61
2019-03-21T08:15:30.941Z,984.65
2019-03-21T08:16:30.945Z,984.60
2019-03-21T08:17:30.973Z,984.53
2019-03-21T08:18:30.936Z,984.54
2019-03-21T08:19:30.924Z,984.51
2019-03-21T08:20:30.930Z,984.49
2019-03-21T08:21:30.895Z,984.50
2019-03-21T08:22:30.886Z,984.51
2019-03-21T08:23:30.885Z,984.47
2019-03-21T08:24:30.875Z,984.46
2019-03-21T08:25:30.861Z,984.52
2019-03-21T08:26:30.883Z,984.49
2019-03-21T08:27:30.831Z,984.34
2019-03-21T08:28:30.809Z,984.38
2019-03-21T08:29:30.813Z,984.34
2019-03-21T08:30:30.805Z,984.39
2019-03-21T08:31:30.828Z,984.39
2019-03-21T08:32:30.782Z,984.38
2019-03-21T08:33:30.775Z,984.37
2019-03-21T08:34:30.753Z,984.38
2019-03-21T08:35:30.745Z,984.33
2019-03-21T08:36:30.728Z,984.34
2019-03-21T08:37:30.769Z,984.36
2019-03-21T08:38:30.716Z,984.33
2019-03-21T08:39:30.695Z,984.30
2019-03-21T08:40:30.687Z,984.34
2019-03-21T08:41:30.687Z,984.28
2019-03-21T08:42:30.670Z,984.28
2019-03-21T08:43:30.903Z,984.34
2019-03-21T08:44:30.651Z,984.31
2019-03-21T08:45:30.625Z,984.33
2019-03-21T08:46:30.619Z,984.32
2019-03-21T08:47:30.606Z,984.40
2019-03-21T08:48:30.595Z,984.30
2019-03-21T08:49:30.626Z,984.35
2019-03-21T08:50:30.605Z,984.33
2019-03-21T08:51:30.570Z,984.34
2019-03-21T08:52:30.562Z,984.31
2019-03-21T08:53:30.538Z,984.31
2019-03-21T08:54:30.514Z,984.30
2019-03-21T08:55:30.566Z,984.33
2019-03-21T08:56:30.523Z,984.31
2019-03-21T08:57:30.498Z,984.35
2019-03-21T08:58:30.496Z,984.35
2019-03-21T08:59:30.475Z,984.34
2019-03-21T09:00:34.478Z,984.35
2019-03-21T09:01:30.500Z,984.33
2019-03-21T09:02:30.431Z,984.31
2019-03-21T09:03:30.426Z,984.26
2019-03-21T09:04:30.424Z,984.28
2019-03-21T09:05:30.408Z,984.28
2019-03-21T09:06:30.409Z,984.25
2019-03-21T09:07:30.484Z,984.27
2019-03-21T09:08:30.362Z,984.32
2019-03-21T09:09:30.385Z,984.32
2019-03-21T09:10:30.365Z,984.27
2019-03-21T09:11:30.365Z,984.33
2019-03-21T09:12:30.341Z,984.34
2019-03-21T09:13:30.362Z,984.28
2019-03-21T09:14:30.314Z,984.29
2019-03-21T09:15:30.219Z,984.29
2019-03-21T09:16:30.414Z,984.21
2019-03-21T09:17:30.184Z,984.21
2019-03-21T09:18:30.169Z,984.23
2019-03-21T09:19:30.188Z,984.25
2019-03-21T09:20:30.152Z,984.25
2019-03-21T09:21:30.147Z,984.19
2019-03-21T09:22:30.127Z,984.14
2019-03-21T09:23:30.114Z,984.19
2019-03-21T09:24:30.172Z,984.16
2019-03-21T09:25:30.119Z,984.18
2019-03-21T09:26:30.100Z,984.14
2019-03-21T09:27:30.066Z,984.06
2019-03-21T09:28:30.068Z,984.13
2019-03-21T09:29:30.050Z,984.07
2019-03-21T09:30:30.073Z,984.09
2019-03-21T09:31:30.024Z,984.09
2019-03-21T09:32:30.028Z,984.10
2019-03-21T09:33:30.009Z,984.07
2019-03-21T09:34:30.020Z,984.05
2019-03-21T09:35:29.987Z,984.06
2019-03-21T09:36:30.024Z,984.03
2019-03-21T09:37:29.970Z,983.98
2019-03-21T09:38:29.949Z,983.95
2019-03-21T09:39:29.947Z,983.98
2019-03-21T09:40:29.928Z,983.91
2019-03-21T09:41:29.928Z,983.92
2019-03-21T09:42:29.945Z,983.95
2019-03-21T09:43:29.896Z,983.91
2019-03-21T09:44:29.942Z,983.81
2019-03-21T09:45:29.864Z,983.88
2019-03-21T09:46:29.868Z,983.83
2019-03-21T09:47:29.857Z,983.83
2019-03-21T09:48:29.849Z,983.83
2019-03-21T09:49:29.829Z,983.80
2019-03-21T09:50:29.898Z,983.77
2019-03-21T09:51:31.174Z,983.83
2019-03-21T09:52:29.807Z,983.84
2019-03-21T09:53:29.796Z,983.85
2019-03-21T09:54:29.765Z,983.75
2019-03-21T09:55:29.776Z,983.76
2019-03-21T09:56:29.808Z,983.78
2019-03-21T09:57:29.748Z,983.80
2019-03-21T09:58:29.731Z,983.79
2019-03-21T09:59:29.729Z,983.77
2019-03-21T10:00:29.707Z,983.75
2019-03-21T10:01:29.708Z,983.78
2019-03-21T10:02:29.718Z,983.72
2019-03-21T10:03:29.682Z,983.75
2019-03-21T10:04:29.718Z,983.78
2019-03-21T10:05:29.648Z,983.77
2019-03-21T10:06:29.648Z,983.80
2019-03-21T10:07:29.624Z,983.82
2019-03-21T10:08:29.628Z,983.83
2019-03-21T10:09:29.613Z,983.83
2019-03-21T10:10:29.651Z,983.77
2019-03-21T10:11:29.591Z,983.78
2019-03-21T10:12:29.567Z,983.82
2019-03-21T10:13:29.569Z,983.79
2019-03-21T10:14:29.547Z,983.79
2019-03-21T10:15:29.550Z,983.81
2019-03-21T10:16:29.594Z,983.86
2019-03-21T10:17:29.524Z,983.78
2019-03-21T10:18:29.507Z,983.81
2019-03-21T10:19:29.508Z,983.75
2019-03-21T10:20:29.566Z,983.72
2019-03-21T10:21:29.464Z,983.72
2019-03-21T10:22:29.518Z,983.71
2019-03-21T10:23:29.448Z,983.73
2019-03-21T10:24:29.440Z,983.69
2019-03-21T10:25:29.414Z,983.68
2019-03-21T10:26:29.428Z,983.67
2019-03-21T10:27:29.406Z,983.66
2019-03-21T10:28:29.434Z,983.71
2019-03-21T10:29:29.397Z,983.65
2019-03-21T10:30:29.368Z,983.64
2019-03-21T10:31:29.371Z,983.62
2019-03-21T10:32:29.338Z,983.62
2019-03-21T10:33:29.344Z,983.63
2019-03-21T10:34:29.362Z,983.58
2019-03-21T10:35:29.330Z,983.60
2019-03-21T10:36:29.323Z,983.57
2019-03-21T10:37:29.306Z,983.65
2019-03-21T10:38:29.290Z,983.61
2019-03-21T10:39:29.319Z,983.54
2019-03-21T10:40:29.278Z,983.56
2019-03-21T10:41:29.279Z,983.54
2019-03-21T10:42:29.248Z,983.53
2019-03-21T10:43:29.220Z,983.53
2019-03-21T10:44:29.232Z,983.50
2019-03-21T10:45:29.253Z,983.53
2019-03-21T10:46:29.221Z,983.50
2019-03-21T10:47:29.188Z,983.45
2019-03-21T10:48:29.199Z,983.51
2019-03-21T10:49:29.168Z,983.51
2019-03-21T10:50:29.168Z,983.59
2019-03-21T10:51:29.182Z,983.50
2019-03-21T10:52:29.136Z,983.50
2019-03-21T10:53:29.162Z,983.54
2019-03-21T10:54:29.106Z,983.49
2019-03-21T10:55:29.088Z,983.51
2019-03-21T10:56:29.135Z,983.54
2019-03-21T10:57:29.147Z,983.49
2019-03-21T10:58:29.070Z,983.53
2019-03-21T10:59:29.065Z,983.49
2019-03-21T11:00:29.046Z,983.47
2019-03-21T11:01:29.048Z,983.49
2019-03-21T11:02:29.032Z,983.45
2019-03-21T11:03:29.029Z,983.43
2019-03-21T11:04:29.152Z,983.40
2019-03-21T11:05:28.999Z,983.36
2019-03-21T11:06:29.002Z,983.40
2019-03-21T11:07:28.973Z,983.39
2019-03-21T11:08:28.962Z,983.34
2019-03-21T11:09:28.955Z,983.39
2019-03-21T11:10:28.994Z,983.34
2019-03-21T11:11:29.018Z,983.30
2019-03-21T11:12:28.928Z,983.33
2019-03-21T11:13:28.992Z,983.25
2019-03-21T11:14:28.998Z,983.32
2019-03-21T11:15:28.885Z,983.22
2019-03-21T11:16:31.352Z,983.17
2019-03-21T11:17:28.857Z,983.17
2019-03-21T11:18:35.938Z,983.16
2019-03-21T11:19:29.939Z,983.17
2019-03-21T11:20:28.912Z,983.18
2019-03-21T11:21:28.916Z,983.13
2019-03-21T11:22:28.927Z,983.13
2019-03-21T11:23:28.891Z,983.11
2019-03-21T11:24:28.821Z,983.17
2019-03-21T11:25:28.859Z,983.08
2019-03-21T11:26:28.879Z,983.13
2019-03-21T11:27:28.853Z,983.14
2019-03-21T11:28:28.843Z,983.08
2019-03-21T11:29:28.804Z,983.10
2019-03-21T11:30:28.849Z,983.08
2019-03-21T11:31:28.847Z,983.08
2019-03-21T11:32:28.844Z,983.10
2019-03-21T11:33:28.783Z,983.03
2019-03-21T11:34:28.775Z,982.99
2019-03-21T11:35:28.661Z,983.00
2019-03-21T11:36:37.856Z,982.94
2019-03-21T11:37:29.753Z,982.98
2019-03-21T11:38:28.635Z,982.94
2019-03-21T11:39:28.757Z,982.94
2019-03-21T11:40:28.624Z,982.94
2019-03-21T11:41:28.603Z,982.89
2019-03-21T11:42:29.251Z,982.89
2019-03-21T11:43:28.658Z,982.93
2019-03-21T11:44:28.659Z,982.91
2019-03-21T11:45:28.698Z,982.86
2019-03-21T11:46:28.670Z,982.85
2019-03-21T11:47:28.605Z,982.82
2019-03-21T11:48:28.528Z,982.80
2019-03-21T11:49:28.497Z,982.79
2019-03-21T11:50:28.515Z,982.77
2019-03-21T11:51:28.535Z,982.80
2019-03-21T11:52:28.478Z,982.76
2019-03-21T11:53:28.457Z,982.74
2019-03-21T11:54:28.455Z,982.76
2019-03-21T11:55:28.423Z,982.76
2019-03-21T11:56:28.508Z,982.72
2019-03-21T11:57:28.462Z,982.70
2019-03-21T11:58:28.393Z,982.69
2019-03-21T11:59:41.334Z,982.72
2019-03-21T12:00:29.439Z,982.72
2019-03-21T12:01:28.372Z,982.66
2019-03-21T12:02:28.350Z,982.67
2019-03-21T12:03:28.393Z,982.66
2019-03-21T12:04:28.334Z,982.71
2019-03-21T12:05:28.334Z,982.70
2019-03-21T12:06:28.314Z,982.69
2019-03-21T12:07:28.295Z,982.68
2019-03-21T12:08:28.295Z,982.67
2019-03-21T12:09:28.320Z,982.63
2019-03-21T12:10:28.272Z,982.64
2019-03-21T12:11:28.253Z,982.60
2019-03-21T12:12:28.252Z,982.64
2019-03-21T12:13:28.238Z,982.58
2019-03-21T12:14:28.232Z,982.57
2019-03-21T12:15:28.258Z,982.51
2019-03-21T12:16:28.194Z,982.49
2019-03-21T12:17:28.194Z,982.46
2019-03-21T12:18:28.175Z,982.51
2019-03-21T12:19:28.174Z,982.49
2019-03-21T12:20:28.157Z,982.44
2019-03-21T12:21:28.191Z,982.51
2019-03-21T12:22:30.356Z,982.49
2019-03-21T12:23:28.167Z,982.45
2019-03-21T12:24:28.117Z,982.53
2019-03-21T12:25:28.093Z,982.46
2019-03-21T12:26:28.176Z,982.44
2019-03-21T12:27:28.120Z,982.38
2019-03-21T12:28:28.158Z,982.41